sensor_id;sensor_type;location;lat;lon;timestamp;P1;durP1;ratioP1;P2;durP2;ratioP2
45564;SDS011;31280;40.408;17.282;2022-10-16T00:02:24;21.73;;;14.07;;
45564;SDS011;31280;40.408;17.282;2022-10-16T00:04:50;23.90;;;14.23;;
45564;SDS011;31280;40.408;17.282;2022-10-16T00:07:16;23.27;;;13.88;;
45564;SDS011;31280;40.408;17.282;2022-10-16T00:09:42;19.63;;;13.13;;
45564;SDS011;31280;40.408;17.282;2022-10-16T00:12:08;21.00;;;14.23;;
45564;SDS011;31280;40.408;17.282;2022-10-16T00:14:33;25.60;;;14.70;;
45564;SDS011;31280;40.408;17.282;2022-10-16T00:16:59;24.70;;;15.18;;
45564;SDS011;31280;40.408;17.282;2022-10-16T00:19:24;26.30;;;15.50;;
45564;SDS011;31280;40.408;17.282;2022-10-16T00:21:50;23.40;;;15.35;;
45564;SDS011;31280;40.408;17.282;2022-10-16T00:24:16;23.52;;;16.33;;
45564;SDS011;31280;40.408;17.282;2022-10-16T00:26:42;23.17;;;15.70;;
45564;SDS011;31280;40.408;17.282;2022-10-16T00:29:08;25.23;;;16.13;;
45564;SDS011;31280;40.408;17.282;2022-10-16T00:31:34;24.27;;;15.73;;
45564;SDS011;31280;40.408;17.282;2022-10-16T00:34:00;26.75;;;15.80;;
45564;SDS011;31280;40.408;17.282;2022-10-16T00:36:26;29.83;;;17.13;;
45564;SDS011;31280;40.408;17.282;2022-10-16T00:38:53;24.85;;;15.23;;
45564;SDS011;31280;40.408;17.282;2022-10-16T00:41:21;24.25;;;15.88;;
45564;SDS011;31280;40.408;17.282;2022-10-16T00:46:20;27.60;;;17.38;;
45564;SDS011;31280;40.408;17.282;2022-10-16T00:49:11;26.20;;;16.38;;
45564;SDS011;31280;40.408;17.282;2022-10-16T00:51:41;25.02;;;16.73;;
45564;SDS011;31280;40.408;17.282;2022-10-16T00:54:14;29.40;;;17.58;;
45564;SDS011;31280;40.408;17.282;2022-10-16T00:56:52;27.08;;;18.17;;
45564;SDS011;31280;40.408;17.282;2022-10-16T00:59:20;25.65;;;16.95;;
45564;SDS011;31280;40.408;17.282;2022-10-16T01:01:51;29.27;;;17.40;;
45564;SDS011;31280;40.408;17.282;2022-10-16T01:04:17;24.70;;;16.92;;
45564;SDS011;31280;40.408;17.282;2022-10-16T01:12:48;24.52;;;16.10;;
45564;SDS011;31280;40.408;17.282;2022-10-16T01:18:37;30.42;;;18.42;;
45564;SDS011;31280;40.408;17.282;2022-10-16T01:21:28;27.25;;;16.80;;
45564;SDS011;31280;40.408;17.282;2022-10-16T01:24:03;28.00;;;17.67;;
45564;SDS011;31280;40.408;17.282;2022-10-16T01:30:02;32.03;;;18.10;;
45564;SDS011;31280;40.408;17.282;2022-10-16T01:35:32;26.92;;;18.17;;
45564;SDS011;31280;40.408;17.282;2022-10-16T01:38:29;26.02;;;17.58;;
45564;SDS011;31280;40.408;17.282;2022-10-16T01:40:58;28.25;;;17.58;;
45564;SDS011;31280;40.408;17.282;2022-10-16T01:43:37;28.50;;;18.83;;
45564;SDS011;31280;40.408;17.282;2022-10-16T01:46:06;27.95;;;18.38;;
45564;SDS011;31280;40.408;17.282;2022-10-16T01:48:33;25.67;;;17.42;;
45564;SDS011;31280;40.408;17.282;2022-10-16T01:51:05;24.77;;;17.73;;
45564;SDS011;31280;40.408;17.282;2022-10-16T01:53:34;27.55;;;17.88;;
45564;SDS011;31280;40.408;17.282;2022-10-16T01:56:00;28.63;;;18.05;;
45564;SDS011;31280;40.408;17.282;2022-10-16T01:58:29;26.48;;;18.63;;
45564;SDS011;31280;40.408;17.282;2022-10-16T02:00:59;28.05;;;18.45;;
45564;SDS011;31280;40.408;17.282;2022-10-16T02:03:27;27.73;;;17.48;;
45564;SDS011;31280;40.408;17.282;2022-10-16T02:05:55;28.50;;;19.27;;
45564;SDS011;31280;40.408;17.282;2022-10-16T02:08:23;27.70;;;17.52;;
45564;SDS011;31280;40.408;17.282;2022-10-16T02:10:51;27.23;;;17.92;;
45564;SDS011;31280;40.408;17.282;2022-10-16T02:13:19;27.63;;;18.98;;
45564;SDS011;31280;40.408;17.282;2022-10-16T02:15:49;26.95;;;18.40;;
45564;SDS011;31280;40.408;17.282;2022-10-16T02:18:15;24.98;;;17.95;;
45564;SDS011;31280;40.408;17.282;2022-10-16T02:20:44;27.75;;;18.67;;
45564;SDS011;31280;40.408;17.282;2022-10-16T02:23:12;29.38;;;19.08;;
45564;SDS011;31280;40.408;17.282;2022-10-16T02:25:43;27.42;;;18.73;;
45564;SDS011;31280;40.408;17.282;2022-10-16T02:28:22;25.08;;;18.15;;
45564;SDS011;31280;40.408;17.282;2022-10-16T02:30:56;31.52;;;18.08;;
45564;SDS011;31280;40.408;17.282;2022-10-16T02:33:25;33.08;;;19.00;;
45564;SDS011;31280;40.408;17.282;2022-10-16T02:35:52;29.52;;;19.50;;
45564;SDS011;31280;40.408;17.282;2022-10-16T02:38:20;33.78;;;18.67;;
45564;SDS011;31280;40.408;17.282;2022-10-16T02:40:47;27.73;;;18.92;;
45564;SDS011;31280;40.408;17.282;2022-10-16T02:43:13;28.80;;;18.35;;
45564;SDS011;31280;40.408;17.282;2022-10-16T02:45:40;28.33;;;19.33;;
45564;SDS011;31280;40.408;17.282;2022-10-16T02:48:06;28.50;;;18.52;;
45564;SDS011;31280;40.408;17.282;2022-10-16T02:50:32;29.35;;;18.98;;
45564;SDS011;31280;40.408;17.282;2022-10-16T02:52:58;28.30;;;19.13;;
45564;SDS011;31280;40.408;17.282;2022-10-16T02:55:24;29.23;;;19.25;;
45564;SDS011;31280;40.408;17.282;2022-10-16T02:57:50;28.02;;;18.60;;
45564;SDS011;31280;40.408;17.282;2022-10-16T03:00:16;29.40;;;18.58;;
45564;SDS011;31280;40.408;17.282;2022-10-16T03:02:43;29.30;;;18.67;;
45564;SDS011;31280;40.408;17.282;2022-10-16T03:05:09;27.05;;;18.17;;
45564;SDS011;31280;40.408;17.282;2022-10-16T03:07:35;27.27;;;18.58;;
45564;SDS011;31280;40.408;17.282;2022-10-16T03:10:00;28.23;;;18.50;;
45564;SDS011;31280;40.408;17.282;2022-10-16T03:12:27;29.15;;;19.33;;
45564;SDS011;31280;40.408;17.282;2022-10-16T03:14:53;30.92;;;18.95;;
45564;SDS011;31280;40.408;17.282;2022-10-16T03:17:19;28.25;;;18.98;;
45564;SDS011;31280;40.408;17.282;2022-10-16T03:19:44;31.52;;;19.08;;
45564;SDS011;31280;40.408;17.282;2022-10-16T03:22:10;31.73;;;19.63;;
45564;SDS011;31280;40.408;17.282;2022-10-16T03:24:36;30.98;;;18.98;;
45564;SDS011;31280;40.408;17.282;2022-10-16T03:27:02;28.00;;;18.58;;
45564;SDS011;31280;40.408;17.282;2022-10-16T03:29:28;28.75;;;19.95;;
45564;SDS011;31280;40.408;17.282;2022-10-16T03:31:55;32.85;;;19.10;;
45564;SDS011;31280;40.408;17.282;2022-10-16T03:34:21;29.55;;;20.08;;
45564;SDS011;31280;40.408;17.282;2022-10-16T03:36:47;33.65;;;20.42;;
45564;SDS011;31280;40.408;17.282;2022-10-16T03:39:13;28.27;;;19.25;;
45564;SDS011;31280;40.408;17.282;2022-10-16T03:41:40;34.38;;;19.73;;
45564;SDS011;31280;40.408;17.282;2022-10-16T03:44:05;31.33;;;19.55;;
45564;SDS011;31280;40.408;17.282;2022-10-16T03:46:31;30.40;;;19.38;;
45564;SDS011;31280;40.408;17.282;2022-10-16T03:48:57;29.45;;;19.58;;
45564;SDS011;31280;40.408;17.282;2022-10-16T03:51:23;29.15;;;18.60;;
45564;SDS011;31280;40.408;17.282;2022-10-16T03:53:49;31.95;;;19.15;;
45564;SDS011;31280;40.408;17.282;2022-10-16T03:56:15;30.52;;;20.05;;
45564;SDS011;31280;40.408;17.282;2022-10-16T03:58:40;29.90;;;18.95;;
45564;SDS011;31280;40.408;17.282;2022-10-16T04:01:06;30.40;;;19.48;;
45564;SDS011;31280;40.408;17.282;2022-10-16T04:03:32;28.65;;;19.27;;
45564;SDS011;31280;40.408;17.282;2022-10-16T04:05:58;26.27;;;18.20;;
45564;SDS011;31280;40.408;17.282;2022-10-16T04:08:24;27.15;;;19.10;;
45564;SDS011;31280;40.408;17.282;2022-10-16T04:10:50;29.25;;;18.55;;
45564;SDS011;31280;40.408;17.282;2022-10-16T04:13:16;35.58;;;19.92;;
45564;SDS011;31280;40.408;17.282;2022-10-16T04:15:42;31.20;;;20.08;;
45564;SDS011;31280;40.408;17.282;2022-10-16T04:18:10;32.33;;;19.65;;
45564;SDS011;31280;40.408;17.282;2022-10-16T04:20:36;31.45;;;19.52;;
45564;SDS011;31280;40.408;17.282;2022-10-16T04:23:02;30.52;;;19.40;;
45564;SDS011;31280;40.408;17.282;2022-10-16T04:25:28;28.67;;;19.08;;
45564;SDS011;31280;40.408;17.282;2022-10-16T04:27:54;27.45;;;18.77;;
45564;SDS011;31280;40.408;17.282;2022-10-16T04:30:21;29.98;;;19.35;;
45564;SDS011;31280;40.408;17.282;2022-10-16T04:32:48;27.30;;;18.02;;
45564;SDS011;31280;40.408;17.282;2022-10-16T04:35:15;29.17;;;18.45;;
45564;SDS011;31280;40.408;17.282;2022-10-16T04:37:42;30.70;;;18.95;;
45564;SDS011;31280;40.408;17.282;2022-10-16T04:40:08;28.73;;;19.70;;
45564;SDS011;31280;40.408;17.282;2022-10-16T04:42:33;30.38;;;18.92;;
45564;SDS011;31280;40.408;17.282;2022-10-16T04:44:59;29.30;;;18.77;;
45564;SDS011;31280;40.408;17.282;2022-10-16T04:47:25;28.25;;;18.50;;
45564;SDS011;31280;40.408;17.282;2022-10-16T04:49:51;27.40;;;18.85;;
45564;SDS011;31280;40.408;17.282;2022-10-16T04:52:17;29.63;;;19.63;;
45564;SDS011;31280;40.408;17.282;2022-10-16T04:54:44;30.05;;;18.90;;
45564;SDS011;31280;40.408;17.282;2022-10-16T04:57:10;26.85;;;18.52;;
45564;SDS011;31280;40.408;17.282;2022-10-16T04:59:36;31.73;;;18.67;;
45564;SDS011;31280;40.408;17.282;2022-10-16T05:02:02;30.92;;;18.67;;
45564;SDS011;31280;40.408;17.282;2022-10-16T05:04:28;25.80;;;17.48;;
45564;SDS011;31280;40.408;17.282;2022-10-16T05:06:54;29.83;;;19.08;;
45564;SDS011;31280;40.408;17.282;2022-10-16T05:09:20;26.25;;;17.58;;
45564;SDS011;31280;40.408;17.282;2022-10-16T05:11:46;27.92;;;18.15;;
45564;SDS011;31280;40.408;17.282;2022-10-16T05:14:11;28.35;;;18.48;;
45564;SDS011;31280;40.408;17.282;2022-10-16T05:16:37;26.30;;;17.48;;
45564;SDS011;31280;40.408;17.282;2022-10-16T05:19:03;26.52;;;18.23;;
45564;SDS011;31280;40.408;17.282;2022-10-16T05:21:29;33.53;;;19.50;;
45564;SDS011;31280;40.408;17.282;2022-10-16T05:23:55;29.90;;;18.65;;
45564;SDS011;31280;40.408;17.282;2022-10-16T05:26:21;31.05;;;18.77;;
45564;SDS011;31280;40.408;17.282;2022-10-16T05:28:47;35.53;;;20.45;;
45564;SDS011;31280;40.408;17.282;2022-10-16T05:31:14;27.60;;;19.00;;
45564;SDS011;31280;40.408;17.282;2022-10-16T05:33:40;31.40;;;19.90;;
45564;SDS011;31280;40.408;17.282;2022-10-16T05:36:06;30.77;;;18.25;;
45564;SDS011;31280;40.408;17.282;2022-10-16T05:38:37;29.33;;;19.65;;
45564;SDS011;31280;40.408;17.282;2022-10-16T05:41:04;31.95;;;20.35;;
45564;SDS011;31280;40.408;17.282;2022-10-16T05:43:30;32.90;;;20.65;;
45564;SDS011;31280;40.408;17.282;2022-10-16T05:45:58;28.50;;;20.25;;
45564;SDS011;31280;40.408;17.282;2022-10-16T05:48:28;31.17;;;20.65;;
45564;SDS011;31280;40.408;17.282;2022-10-16T05:55:54;32.80;;;20.60;;
45564;SDS011;31280;40.408;17.282;2022-10-16T05:58:21;28.10;;;19.92;;
45564;SDS011;31280;40.408;17.282;2022-10-16T06:00:54;33.10;;;21.15;;
45564;SDS011;31280;40.408;17.282;2022-10-16T06:03:26;32.08;;;20.65;;
45564;SDS011;31280;40.408;17.282;2022-10-16T06:05:52;33.00;;;20.48;;
45564;SDS011;31280;40.408;17.282;2022-10-16T06:08:19;28.75;;;20.42;;
45564;SDS011;31280;40.408;17.282;2022-10-16T06:10:48;31.58;;;20.70;;
45564;SDS011;31280;40.408;17.282;2022-10-16T06:13:14;32.40;;;20.08;;
45564;SDS011;31280;40.408;17.282;2022-10-16T06:15:41;33.63;;;20.83;;
45564;SDS011;31280;40.408;17.282;2022-10-16T06:18:11;30.55;;;20.35;;
45564;SDS011;31280;40.408;17.282;2022-10-16T06:20:37;29.35;;;20.27;;
45564;SDS011;31280;40.408;17.282;2022-10-16T06:23:03;33.10;;;20.60;;
45564;SDS011;31280;40.408;17.282;2022-10-16T06:25:30;29.35;;;20.70;;
45564;SDS011;31280;40.408;17.282;2022-10-16T06:27:56;32.92;;;20.15;;
45564;SDS011;31280;40.408;17.282;2022-10-16T06:30:22;35.55;;;20.17;;
45564;SDS011;31280;40.408;17.282;2022-10-16T06:32:48;28.15;;;19.70;;
45564;SDS011;31280;40.408;17.282;2022-10-16T06:35:14;29.73;;;20.30;;
45564;SDS011;31280;40.408;17.282;2022-10-16T06:37:40;31.17;;;20.17;;
45564;SDS011;31280;40.408;17.282;2022-10-16T06:40:06;31.23;;;20.17;;
45564;SDS011;31280;40.408;17.282;2022-10-16T06:42:32;30.25;;;20.35;;
45564;SDS011;31280;40.408;17.282;2022-10-16T06:44:58;33.85;;;19.85;;
45564;SDS011;31280;40.408;17.282;2022-10-16T06:47:24;30.15;;;20.23;;
45564;SDS011;31280;40.408;17.282;2022-10-16T06:49:50;28.80;;;20.65;;
45564;SDS011;31280;40.408;17.282;2022-10-16T06:52:15;35.22;;;21.58;;
45564;SDS011;31280;40.408;17.282;2022-10-16T06:54:41;33.00;;;21.30;;
45564;SDS011;31280;40.408;17.282;2022-10-16T06:57:07;34.13;;;21.50;;
45564;SDS011;31280;40.408;17.282;2022-10-16T06:59:32;30.52;;;20.88;;
45564;SDS011;31280;40.408;17.282;2022-10-16T07:01:58;30.33;;;19.98;;
45564;SDS011;31280;40.408;17.282;2022-10-16T07:04:24;30.10;;;19.70;;
45564;SDS011;31280;40.408;17.282;2022-10-16T07:06:50;31.65;;;21.00;;
45564;SDS011;31280;40.408;17.282;2022-10-16T07:09:16;31.90;;;19.73;;
45564;SDS011;31280;40.408;17.282;2022-10-16T07:11:42;30.27;;;20.98;;
45564;SDS011;31280;40.408;17.282;2022-10-16T07:14:17;30.50;;;21.20;;
45564;SDS011;31280;40.408;17.282;2022-10-16T07:16:45;29.83;;;20.70;;
45564;SDS011;31280;40.408;17.282;2022-10-16T07:19:11;31.05;;;21.88;;
45564;SDS011;31280;40.408;17.282;2022-10-16T07:21:39;28.77;;;20.30;;
45564;SDS011;31280;40.408;17.282;2022-10-16T07:24:10;32.42;;;21.77;;
45564;SDS011;31280;40.408;17.282;2022-10-16T07:26:39;35.30;;;22.15;;
45564;SDS011;31280;40.408;17.282;2022-10-16T07:29:07;33.53;;;22.58;;
45564;SDS011;31280;40.408;17.282;2022-10-16T07:31:38;32.05;;;22.08;;
45564;SDS011;31280;40.408;17.282;2022-10-16T07:34:05;29.88;;;21.17;;
45564;SDS011;31280;40.408;17.282;2022-10-16T07:36:30;31.33;;;21.67;;
45564;SDS011;31280;40.408;17.282;2022-10-16T07:38:56;34.70;;;22.33;;
45564;SDS011;31280;40.408;17.282;2022-10-16T07:41:22;30.40;;;21.00;;
45564;SDS011;31280;40.408;17.282;2022-10-16T07:43:50;35.67;;;21.20;;
45564;SDS011;31280;40.408;17.282;2022-10-16T07:46:17;31.40;;;21.95;;
45564;SDS011;31280;40.408;17.282;2022-10-16T07:48:44;33.72;;;22.25;;
45564;SDS011;31280;40.408;17.282;2022-10-16T07:51:13;33.55;;;22.75;;
45564;SDS011;31280;40.408;17.282;2022-10-16T07:53:40;31.75;;;22.20;;
45564;SDS011;31280;40.408;17.282;2022-10-16T07:56:06;33.88;;;21.63;;
45564;SDS011;31280;40.408;17.282;2022-10-16T07:58:33;30.20;;;22.35;;
45564;SDS011;31280;40.408;17.282;2022-10-16T08:01:06;39.70;;;22.33;;
45564;SDS011;31280;40.408;17.282;2022-10-16T08:03:33;33.17;;;23.20;;
45564;SDS011;31280;40.408;17.282;2022-10-16T08:05:59;35.10;;;22.52;;
45564;SDS011;31280;40.408;17.282;2022-10-16T08:08:26;31.80;;;22.20;;
45564;SDS011;31280;40.408;17.282;2022-10-16T08:10:51;30.33;;;20.17;;
45564;SDS011;31280;40.408;17.282;2022-10-16T08:13:17;34.13;;;21.33;;
45564;SDS011;31280;40.408;17.282;2022-10-16T08:15:44;31.13;;;21.00;;
45564;SDS011;31280;40.408;17.282;2022-10-16T08:18:11;29.83;;;19.88;;
45564;SDS011;31280;40.408;17.282;2022-10-16T08:20:57;26.63;;;18.58;;
45564;SDS011;31280;40.408;17.282;2022-10-16T08:23:24;23.40;;;17.27;;
45564;SDS011;31280;40.408;17.282;2022-10-16T08:25:51;25.33;;;17.90;;
45564;SDS011;31280;40.408;17.282;2022-10-16T08:28:19;27.70;;;19.02;;
45564;SDS011;31280;40.408;17.282;2022-10-16T08:30:45;28.08;;;18.65;;
45564;SDS011;31280;40.408;17.282;2022-10-16T08:33:10;25.20;;;18.77;;
45564;SDS011;31280;40.408;17.282;2022-10-16T08:35:36;27.77;;;18.15;;
45564;SDS011;31280;40.408;17.282;2022-10-16T08:38:05;25.92;;;17.27;;
45564;SDS011;31280;40.408;17.282;2022-10-16T08:40:32;26.08;;;17.98;;
45564;SDS011;31280;40.408;17.282;2022-10-16T08:43:12;25.15;;;17.67;;
45564;SDS011;31280;40.408;17.282;2022-10-16T08:48:48;28.65;;;17.52;;
45564;SDS011;31280;40.408;17.282;2022-10-16T08:56:24;31.38;;;18.10;;
45564;SDS011;31280;40.408;17.282;2022-10-16T08:58:51;27.67;;;17.92;;
45564;SDS011;31280;40.408;17.282;2022-10-16T09:01:19;23.08;;;16.35;;
45564;SDS011;31280;40.408;17.282;2022-10-16T09:12:04;22.48;;;16.52;;
45564;SDS011;31280;40.408;17.282;2022-10-16T09:14:45;24.77;;;16.33;;
45564;SDS011;31280;40.408;17.282;2022-10-16T09:22:41;21.58;;;15.68;;
45564;SDS011;31280;40.408;17.282;2022-10-16T09:25:11;22.00;;;16.02;;
45564;SDS011;31280;40.408;17.282;2022-10-16T09:27:44;23.40;;;16.80;;
45564;SDS011;31280;40.408;17.282;2022-10-16T09:32:39;23.50;;;15.40;;
45564;SDS011;31280;40.408;17.282;2022-10-16T09:35:10;24.00;;;16.88;;
45564;SDS011;31280;40.408;17.282;2022-10-16T09:37:40;28.05;;;17.80;;
45564;SDS011;31280;40.408;17.282;2022-10-16T09:40:11;25.30;;;17.42;;
45564;SDS011;31280;40.408;17.282;2022-10-16T09:42:38;28.20;;;19.08;;
45564;SDS011;31280;40.408;17.282;2022-10-16T09:45:05;29.90;;;18.60;;
45564;SDS011;31280;40.408;17.282;2022-10-16T09:47:31;26.42;;;16.73;;
45564;SDS011;31280;40.408;17.282;2022-10-16T09:50:20;26.60;;;17.63;;
45564;SDS011;31280;40.408;17.282;2022-10-16T09:52:46;28.17;;;17.50;;
45564;SDS011;31280;40.408;17.282;2022-10-16T09:55:16;33.15;;;17.48;;
45564;SDS011;31280;40.408;17.282;2022-10-16T09:57:49;24.15;;;16.70;;
45564;SDS011;31280;40.408;17.282;2022-10-16T10:00:16;23.75;;;16.65;;
45564;SDS011;31280;40.408;17.282;2022-10-16T10:02:44;24.85;;;16.80;;
45564;SDS011;31280;40.408;17.282;2022-10-16T10:05:26;24.25;;;16.33;;
45564;SDS011;31280;40.408;17.282;2022-10-16T10:10:28;20.55;;;14.80;;
45564;SDS011;31280;40.408;17.282;2022-10-16T10:12:55;26.67;;;16.08;;
45564;SDS011;31280;40.408;17.282;2022-10-16T10:15:22;26.17;;;16.95;;
45564;SDS011;31280;40.408;17.282;2022-10-16T10:17:53;23.48;;;17.13;;
45564;SDS011;31280;40.408;17.282;2022-10-16T10:22:59;25.35;;;16.13;;
45564;SDS011;31280;40.408;17.282;2022-10-16T10:25:41;27.73;;;18.17;;
45564;SDS011;31280;40.408;17.282;2022-10-16T10:33:44;25.42;;;17.77;;
45564;SDS011;31280;40.408;17.282;2022-10-16T10:39:17;24.80;;;16.33;;
45564;SDS011;31280;40.408;17.282;2022-10-16T10:41:54;25.02;;;16.70;;
45564;SDS011;31280;40.408;17.282;2022-10-16T10:47:23;25.15;;;15.85;;
45564;SDS011;31280;40.408;17.282;2022-10-16T11:06:18;23.27;;;15.77;;
45564;SDS011;31280;40.408;17.282;2022-10-16T11:11:49;24.95;;;14.00;;
45564;SDS011;31280;40.408;17.282;2022-10-16T11:25:11;19.55;;;12.05;;
45564;SDS011;31280;40.408;17.282;2022-10-16T11:33:23;22.77;;;13.45;;
45564;SDS011;31280;40.408;17.282;2022-10-16T11:41:54;20.17;;;14.88;;
45564;SDS011;31280;40.408;17.282;2022-10-16T11:44:32;20.58;;;14.85;;
45564;SDS011;31280;40.408;17.282;2022-10-16T11:47:23;23.90;;;14.70;;
45564;SDS011;31280;40.408;17.282;2022-10-16T11:50:02;22.90;;;14.30;;
45564;SDS011;31280;40.408;17.282;2022-10-16T11:52:41;21.75;;;14.13;;
45564;SDS011;31280;40.408;17.282;2022-10-16T11:55:17;19.40;;;13.07;;
45564;SDS011;31280;40.408;17.282;2022-10-16T11:57:46;22.75;;;15.43;;
45564;SDS011;31280;40.408;17.282;2022-10-16T12:08:04;22.02;;;14.82;;
45564;SDS011;31280;40.408;17.282;2022-10-16T12:10:34;18.58;;;13.73;;
45564;SDS011;31280;40.408;17.282;2022-10-16T12:13:04;20.85;;;14.57;;
45564;SDS011;31280;40.408;17.282;2022-10-16T12:15:31;20.55;;;14.95;;
45564;SDS011;31280;40.408;17.282;2022-10-16T12:17:58;21.30;;;15.77;;
45564;SDS011;31280;40.408;17.282;2022-10-16T12:20:27;20.35;;;14.68;;
45564;SDS011;31280;40.408;17.282;2022-10-16T12:23:01;17.55;;;13.45;;
45564;SDS011;31280;40.408;17.282;2022-10-16T12:25:36;18.45;;;14.27;;
45564;SDS011;31280;40.408;17.282;2022-10-16T12:28:19;20.25;;;14.05;;
45564;SDS011;31280;40.408;17.282;2022-10-16T12:30:56;20.85;;;15.00;;
45564;SDS011;31280;40.408;17.282;2022-10-16T12:35:58;21.00;;;14.63;;
45564;SDS011;31280;40.408;17.282;2022-10-16T12:40:58;22.25;;;13.93;;
45564;SDS011;31280;40.408;17.282;2022-10-16T12:48:45;18.98;;;13.63;;
45564;SDS011;31280;40.408;17.282;2022-10-16T12:51:33;20.58;;;13.95;;
45564;SDS011;31280;40.408;17.282;2022-10-16T12:54:11;23.02;;;14.27;;
45564;SDS011;31280;40.408;17.282;2022-10-16T12:59:54;20.20;;;14.15;;
45564;SDS011;31280;40.408;17.282;2022-10-16T13:16:24;18.23;;;12.88;;
45564;SDS011;31280;40.408;17.282;2022-10-16T13:21:45;20.25;;;12.60;;
45564;SDS011;31280;40.408;17.282;2022-10-16T13:24:19;16.98;;;12.57;;
45564;SDS011;31280;40.408;17.282;2022-10-16T13:28:00;16.15;;;12.88;;
45564;SDS011;31280;40.408;17.282;2022-10-16T13:30:00;16.80;;;13.50;;
45564;SDS011;31280;40.408;17.282;2022-10-16T13:32:33;17.27;;;12.90;;
45564;SDS011;31280;40.408;17.282;2022-10-16T13:34:59;16.80;;;12.43;;
45564;SDS011;31280;40.408;17.282;2022-10-16T13:37:26;22.20;;;13.65;;
45564;SDS011;31280;40.408;17.282;2022-10-16T13:40:02;15.60;;;13.10;;
45564;SDS011;31280;40.408;17.282;2022-10-16T13:42:37;16.15;;;13.00;;
45564;SDS011;31280;40.408;17.282;2022-10-16T13:45:03;17.55;;;12.88;;
45564;SDS011;31280;40.408;17.282;2022-10-16T13:47:29;16.70;;;12.73;;
45564;SDS011;31280;40.408;17.282;2022-10-16T13:50:09;16.63;;;12.60;;
45564;SDS011;31280;40.408;17.282;2022-10-16T13:52:37;16.45;;;12.00;;
45564;SDS011;31280;40.408;17.282;2022-10-16T13:55:04;16.42;;;12.25;;
45564;SDS011;31280;40.408;17.282;2022-10-16T13:57:35;20.10;;;13.57;;
45564;SDS011;31280;40.408;17.282;2022-10-16T14:00:01;17.70;;;12.48;;
45564;SDS011;31280;40.408;17.282;2022-10-16T14:02:29;14.57;;;12.50;;
45564;SDS011;31280;40.408;17.282;2022-10-16T14:05:00;19.40;;;13.00;;
45564;SDS011;31280;40.408;17.282;2022-10-16T14:07:29;18.02;;;12.77;;
45564;SDS011;31280;40.408;17.282;2022-10-16T14:09:58;17.80;;;12.95;;
45564;SDS011;31280;40.408;17.282;2022-10-16T14:12:27;17.02;;;12.88;;
45564;SDS011;31280;40.408;17.282;2022-10-16T14:14:53;18.23;;;13.82;;
45564;SDS011;31280;40.408;17.282;2022-10-16T14:17:24;16.98;;;12.95;;
45564;SDS011;31280;40.408;17.282;2022-10-16T14:19:56;16.52;;;12.25;;
45564;SDS011;31280;40.408;17.282;2022-10-16T14:22:36;19.55;;;14.02;;
45564;SDS011;31280;40.408;17.282;2022-10-16T14:28:00;17.67;;;12.50;;
45564;SDS011;31280;40.408;17.282;2022-10-16T14:30:26;17.75;;;13.10;;
45564;SDS011;31280;40.408;17.282;2022-10-16T14:33:00;17.65;;;13.20;;
45564;SDS011;31280;40.408;17.282;2022-10-16T14:35:38;16.10;;;13.32;;
45564;SDS011;31280;40.408;17.282;2022-10-16T14:38:06;16.92;;;13.63;;
45564;SDS011;31280;40.408;17.282;2022-10-16T14:40:46;24.35;;;14.50;;
45564;SDS011;31280;40.408;17.282;2022-10-16T14:43:55;20.30;;;14.32;;
45564;SDS011;31280;40.408;17.282;2022-10-16T14:46:13;19.20;;;14.60;;
45564;SDS011;31280;40.408;17.282;2022-10-16T14:48:43;23.13;;;14.85;;
45564;SDS011;31280;40.408;17.282;2022-10-16T14:51:18;20.15;;;15.05;;
45564;SDS011;31280;40.408;17.282;2022-10-16T14:53:45;20.58;;;14.02;;
45564;SDS011;31280;40.408;17.282;2022-10-16T14:56:16;20.05;;;14.00;;
45564;SDS011;31280;40.408;17.282;2022-10-16T14:58:48;21.27;;;14.82;;
45564;SDS011;31280;40.408;17.282;2022-10-16T15:01:15;21.80;;;15.80;;
45564;SDS011;31280;40.408;17.282;2022-10-16T15:03:41;21.40;;;15.65;;
45564;SDS011;31280;40.408;17.282;2022-10-16T15:06:16;22.08;;;15.55;;
45564;SDS011;31280;40.408;17.282;2022-10-16T15:08:42;20.95;;;15.68;;
45564;SDS011;31280;40.408;17.282;2022-10-16T15:11:10;19.15;;;14.70;;
45564;SDS011;31280;40.408;17.282;2022-10-16T15:13:39;20.50;;;15.95;;
45564;SDS011;31280;40.408;17.282;2022-10-16T15:16:07;21.45;;;16.25;;
45564;SDS011;31280;40.408;17.282;2022-10-16T15:18:36;26.38;;;18.33;;
45564;SDS011;31280;40.408;17.282;2022-10-16T15:21:02;24.70;;;16.30;;
45564;SDS011;31280;40.408;17.282;2022-10-16T15:23:28;21.50;;;15.10;;
45564;SDS011;31280;40.408;17.282;2022-10-16T15:25:54;18.05;;;13.63;;
45564;SDS011;31280;40.408;17.282;2022-10-16T15:28:21;21.58;;;14.68;;
45564;SDS011;31280;40.408;17.282;2022-10-16T15:30:52;16.75;;;13.25;;
45564;SDS011;31280;40.408;17.282;2022-10-16T15:33:20;19.33;;;13.85;;
45564;SDS011;31280;40.408;17.282;2022-10-16T15:35:51;18.73;;;13.73;;
45564;SDS011;31280;40.408;17.282;2022-10-16T15:38:18;19.05;;;13.18;;
45564;SDS011;31280;40.408;17.282;2022-10-16T15:40:46;17.35;;;13.50;;
45564;SDS011;31280;40.408;17.282;2022-10-16T15:43:12;19.30;;;13.50;;
45564;SDS011;31280;40.408;17.282;2022-10-16T15:45:38;19.52;;;14.50;;
45564;SDS011;31280;40.408;17.282;2022-10-16T15:48:04;19.88;;;14.30;;
45564;SDS011;31280;40.408;17.282;2022-10-16T15:50:30;18.67;;;14.07;;
45564;SDS011;31280;40.408;17.282;2022-10-16T15:52:57;21.20;;;15.30;;
45564;SDS011;31280;40.408;17.282;2022-10-16T15:55:23;20.35;;;14.18;;
45564;SDS011;31280;40.408;17.282;2022-10-16T15:57:49;18.95;;;14.57;;
45564;SDS011;31280;40.408;17.282;2022-10-16T16:00:17;18.77;;;14.65;;
45564;SDS011;31280;40.408;17.282;2022-10-16T16:02:51;19.80;;;13.68;;
45564;SDS011;31280;40.408;17.282;2022-10-16T16:05:17;19.15;;;14.45;;
45564;SDS011;31280;40.408;17.282;2022-10-16T16:07:44;20.52;;;14.60;;
45564;SDS011;31280;40.408;17.282;2022-10-16T16:10:10;19.27;;;13.93;;
45564;SDS011;31280;40.408;17.282;2022-10-16T16:12:37;20.80;;;15.32;;
45564;SDS011;31280;40.408;17.282;2022-10-16T16:15:04;18.83;;;13.93;;
45564;SDS011;31280;40.408;17.282;2022-10-16T16:17:31;22.10;;;14.63;;
45564;SDS011;31280;40.408;17.282;2022-10-16T16:19:57;18.90;;;14.77;;
45564;SDS011;31280;40.408;17.282;2022-10-16T16:22:23;18.58;;;14.25;;
45564;SDS011;31280;40.408;17.282;2022-10-16T16:24:49;21.35;;;15.10;;
45564;SDS011;31280;40.408;17.282;2022-10-16T16:27:15;19.63;;;14.63;;
45564;SDS011;31280;40.408;17.282;2022-10-16T16:29:41;20.58;;;15.40;;
45564;SDS011;31280;40.408;17.282;2022-10-16T16:32:07;21.98;;;14.85;;
45564;SDS011;31280;40.408;17.282;2022-10-16T16:34:33;23.90;;;15.43;;
45564;SDS011;31280;40.408;17.282;2022-10-16T16:36:58;20.48;;;14.77;;
45564;SDS011;31280;40.408;17.282;2022-10-16T16:39:24;23.08;;;16.98;;
45564;SDS011;31280;40.408;17.282;2022-10-16T16:41:51;22.88;;;15.57;;
45564;SDS011;31280;40.408;17.282;2022-10-16T16:44:16;21.70;;;15.43;;
45564;SDS011;31280;40.408;17.282;2022-10-16T16:46:42;22.25;;;15.88;;